Time;durP1;ratioP1;P1;durP2;ratioP2;P2;SDS_P1;SDS_P2;PMS_P1;PMS_P2;Temp;Humidity;BMP_temperature;BMP_pressure;BME280_temperature;BME280_humidity;BME280_pressure;Samples;Min_cycle;Max_cycle;Signal;HPM_P1;HPM_P2
2023/07/28 00:00:56;;;;;;;0.00;0.00;;;18.20;99.90;;;;;;5092367;28;20229;-68
2023/07/28 00:03:22;;;;;;;0.00;0.00;;;18.20;99.90;;;;;;5090888;28;20184;-68
2023/07/28 00:05:48;;;;;;;0.00;0.00;;;18.10;99.90;;;;;;5091007;28;20180;-68
2023/07/28 00:08:13;;;;;;;0.00;0.00;;;18.20;99.90;;;;;;5090952;28;20192;-68
2023/07/28 00:10:42;;;;;;;0.00;0.00;;;18.10;99.90;;;;;;5090958;28;20527;-68
2023/07/28 00:13:08;;;;;;;0.00;0.00;;;18.10;99.90;;;;;;5092072;28;20195;-68
2023/07/28 00:15:34;;;;;;;0.00;0.00;;;18.10;99.90;;;;;;5089625;28;20233;-68
2023/07/28 00:18:01;;;;;;;0.00;0.00;;;18.10;99.90;;;;;;5089862;28;20179;-68
2023/07/28 00:20:27;;;;;;;0.00;0.00;;;18.20;99.90;;;;;;5090904;28;20717;-68
2023/07/28 00:22:53;;;;;;;0.03;0.03;;;18.10;99.90;;;;;;5091049;28;20179;-68
2023/07/28 00:25:18;;;;;;;0.00;0.00;;;18.10;99.90;;;;;;5091028;28;20172;-68
2023/07/28 00:27:44;;;;;;;0.00;0.00;;;18.10;99.90;;;;;;5091134;28;20243;-68
2023/07/28 00:30:11;;;;;;;0.00;0.00;;;18.10;99.90;;;;;;5072903;28;20180;-68
2023/07/28 00:32:37;;;;;;;0.00;0.00;;;18.10;99.90;;;;;;5091093;28;20180;-69
2023/07/28 00:35:03;;;;;;;0.00;0.00;;;18.10;99.90;;;;;;5091323;28;20218;-69
2023/07/28 00:37:29;;;;;;;0.00;0.00;;;18.10;99.90;;;;;;5090040;28;20258;-68
2023/07/28 00:39:54;;;;;;;0.00;0.00;;;18.10;99.90;;;;;;5090507;28;20179;-68
2023/07/28 00:42:20;;;;;;;0.00;0.00;;;18.10;99.90;;;;;;5090883;28;20184;-69
2023/07/28 00:44:46;;;;;;;0.00;0.00;;;18.10;99.90;;;;;;5091048;28;20643;-69
2023/07/28 00:47:11;;;;;;;0.00;0.00;;;18.10;99.90;;;;;;5089476;28;20182;-69
2023/07/28 00:49:39;;;;;;;0.00;0.00;;;18.10;99.90;;;;;;5082943;28;20184;-68
2023/07/28 00:52:09;;;;;;;0.00;0.00;;;18.10;99.90;;;;;;5090676;28;20180;-68
2023/07/28 00:54:36;;;;;;;0.00;0.00;;;18.10;99.90;;;;;;5090495;28;20302;-69
2023/07/28 00:57:04;;;;;;;0.00;0.00;;;18.10;99.90;;;;;;5090903;28;20175;-68
2023/07/28 00:59:31;;;;;;;0.00;0.00;;;18.10;99.90;;;;;;5090886;28;20584;-69
2023/07/28 01:01:56;;;;;;;0.00;0.00;;;18.00;99.90;;;;;;5091280;28;20207;-68
2023/07/28 01:04:22;;;;;;;0.00;0.00;;;18.00;99.90;;;;;;5090680;28;20176;-68
2023/07/28 01:07:00;;;;;;;0.00;0.00;;;18.00;99.90;;;;;;5090175;28;20206;-68
2023/07/28 01:09:34;;;;;;;0.88;0.10;;;18.00;99.90;;;;;;5090308;28;20179;-69
2023/07/28 01:12:01;;;;;;;0.00;0.00;;;17.90;99.90;;;;;;5090845;28;20176;-69
2023/07/28 01:14:26;;;;;;;0.00;0.00;;;17.90;99.90;;;;;;5093113;28;20195;-68
2023/07/28 01:16:52;;;;;;;0.00;0.00;;;17.90;99.90;;;;;;5094566;28;20236;-68
2023/07/28 01:19:20;;;;;;;0.00;0.00;;;17.90;99.90;;;;;;5094746;28;20160;-68
2023/07/28 01:21:53;;;;;;;0.00;0.00;;;17.90;99.90;;;;;;5094865;28;20180;-68
2023/07/28 01:24:27;;;;;;;0.00;0.00;;;17.90;99.90;;;;;;5094599;28;20309;-68
2023/07/28 01:26:53;;;;;;;0.00;0.00;;;17.90;99.90;;;;;;5094487;28;20189;-68
2023/07/28 01:29:20;;;;;;;0.00;0.00;;;17.90;99.90;;;;;;5094334;28;20236;-68
2023/07/28 01:31:48;;;;;;;0.00;0.00;;;17.80;99.90;;;;;;5094435;28;20176;-68
2023/07/28 01:34:14;;;;;;;0.10;0.10;;;17.80;99.90;;;;;;5092987;28;20210;-68
2023/07/28 01:36:41;;;;;;;0.00;0.00;;;17.80;99.90;;;;;;5094475;28;20192;-68
2023/07/28 01:39:06;;;;;;;0.00;0.00;;;17.80;99.90;;;;;;5094386;28;20183;-68
2023/07/28 01:41:32;;;;;;;0.00;0.00;;;17.80;99.90;;;;;;5093307;28;20196;-67
2023/07/28 01:43:58;;;;;;;0.00;0.00;;;17.80;99.90;;;;;;5093065;28;20200;-68
2023/07/28 01:46:23;;;;;;;0.00;0.00;;;17.80;99.90;;;;;;5093782;28;20187;-67
2023/07/28 01:48:49;;;;;;;0.00;0.00;;;17.80;99.90;;;;;;5092244;28;20304;-68
2023/07/28 01:51:14;;;;;;;0.10;0.10;;;17.80;99.90;;;;;;5094359;28;20196;-68
2023/07/28 01:53:40;;;;;;;0.00;0.00;;;17.80;99.90;;;;;;5094174;28;20183;-68
2023/07/28 01:56:05;;;;;;;0.00;0.00;;;17.80;99.90;;;;;;5093768;28;20824;-68
2023/07/28 01:58:31;;;;;;;0.00;0.00;;;17.70;99.90;;;;;;5094079;28;20180;-67
2023/07/28 02:00:57;;;;;;;0.00;0.00;;;17.70;99.90;;;;;;5093776;28;20537;-68
2023/07/28 02:03:22;;;;;;;0.00;0.00;;;17.70;99.90;;;;;;5093707;28;20724;-67
2023/07/28 02:05:48;;;;;;;0.00;0.00;;;17.70;99.90;;;;;;5093951;28;20179;-68
2023/07/28 02:08:13;;;;;;;0.00;0.00;;;17.60;99.90;;;;;;5093744;28;20253;-69
2023/07/28 02:10:39;;;;;;;0.00;0.00;;;17.60;99.90;;;;;;5092446;28;20180;-68
2023/07/28 02:13:05;;;;;;;0.00;0.00;;;17.60;99.90;;;;;;5094087;28;20285;-70
2023/07/28 02:15:31;;;;;;;0.00;0.00;;;17.60;99.90;;;;;;5092562;28;20322;-68
2023/07/28 02:17:56;;;;;;;0.00;0.00;;;17.60;99.90;;;;;;5093428;28;20180;-68
2023/07/28 02:20:22;;;;;;;0.00;0.00;;;17.60;99.90;;;;;;5093544;28;20203;-68
2023/07/28 02:22:47;;;;;;;0.00;0.00;;;17.60;99.90;;;;;;5093681;28;20184;-68
2023/07/28 02:25:13;;;;;;;0.00;0.00;;;17.60;99.90;;;;;;5092268;28;20241;-69
2023/07/28 02:27:39;;;;;;;0.00;0.00;;;17.60;99.90;;;;;;5091823;28;20211;-68
2023/07/28 02:30:06;;;;;;;0.00;0.00;;;17.50;99.90;;;;;;5092884;28;20168;-68
2023/07/28 02:32:31;;;;;;;0.00;0.00;;;17.50;99.90;;;;;;5093083;28;20230;-68
2023/07/28 02:34:57;;;;;;;0.00;0.00;;;17.50;99.90;;;;;;5092575;28;20235;-67
2023/07/28 02:37:24;;;;;;;0.00;0.00;;;17.50;99.90;;;;;;5091646;28;20191;-68
2023/07/28 02:39:49;;;;;;;0.00;0.00;;;17.60;99.90;;;;;;5092880;28;20172;-67
2023/07/28 02:42:15;;;;;;;0.00;0.00;;;17.60;99.90;;;;;;5092993;28;20647;-68
2023/07/28 02:44:41;;;;;;;0.00;0.00;;;17.60;99.90;;;;;;5093135;28;20245;-68
2023/07/28 02:47:06;;;;;;;0.00;0.00;;;17.60;99.90;;;;;;5093011;28;20183;-68
2023/07/28 02:49:32;;;;;;;0.00;0.00;;;17.60;99.90;;;;;;5093391;28;20176;-68
2023/07/28 02:51:58;;;;;;;0.00;0.00;;;17.60;99.90;;;;;;5093581;28;20263;-68
2023/07/28 02:54:25;;;;;;;0.47;0.32;;;17.60;99.90;;;;;;5092985;28;20216;-68
2023/07/28 02:56:50;;;;;;;0.00;0.00;;;17.60;99.90;;;;;;5093767;28;20188;-68
2023/07/28 02:59:16;;;;;;;0.00;0.00;;;17.60;99.90;;;;;;5092971;28;20601;-68
2023/07/28 03:01:43;;;;;;;0.00;0.00;;;17.50;99.90;;;;;;5093970;28;20179;-67
2023/07/28 03:04:08;;;;;;;0.00;0.00;;;17.50;99.90;;;;;;5096874;28;20267;-68
2023/07/28 03:06:34;;;;;;;0.05;0.05;;;17.50;99.90;;;;;;5094960;28;20267;-68
2023/07/28 03:09:00;;;;;;;0.20;0.10;;;17.50;99.90;;;;;;5094364;28;20183;-68
2023/07/28 03:11:25;;;;;;;0.00;0.00;;;17.50;99.90;;;;;;5094820;28;20679;-67
2023/07/28 03:13:51;;;;;;;0.00;0.00;;;17.50;99.90;;;;;;5095234;28;20262;-68
2023/07/28 03:16:17;;;;;;;0.22;0.22;;;17.50;99.90;;;;;;5094685;28;20188;-69
2023/07/28 03:18:42;;;;;;;0.00;0.00;;;17.50;99.90;;;;;;5095000;28;20180;-68
2023/07/28 03:21:10;;;;;;;0.00;0.00;;;17.50;99.90;;;;;;5094367;28;20541;-68
2023/07/28 03:23:36;;;;;;;0.00;0.00;;;17.50;99.90;;;;;;5093938;28;20515;-68
2023/07/28 03:26:02;;;;;;;0.00;0.00;;;17.50;99.90;;;;;;5093725;28;20187;-68
2023/07/28 03:28:27;;;;;;;0.00;0.00;;;17.50;99.90;;;;;;5093246;28;20224;-68
2023/07/28 03:30:53;;;;;;;0.00;0.00;;;17.50;99.90;;;;;;5093283;28;20263;-68
2023/07/28 03:33:18;;;;;;;0.00;0.00;;;17.50;99.90;;;;;;5092775;28;20172;-68
2023/07/28 03:35:44;;;;;;;0.00;0.00;;;17.50;99.90;;;;;;5092235;28;20208;-69
2023/07/28 03:38:09;;;;;;;0.00;0.00;;;17.50;99.90;;;;;;5091969;28;20177;-71
2023/07/28 03:40:35;;;;;;;0.00;0.00;;;17.50;99.90;;;;;;5088141;28;20184;-71
2023/07/28 03:43:02;;;;;;;0.00;0.00;;;17.50;99.90;;;;;;5092103;28;20590;-71
2023/07/28 03:45:28;;;;;;;0.05;0.05;;;17.50;99.90;;;;;;5091391;28;20180;-69
2023/07/28 03:47:54;;;;;;;0.00;0.00;;;17.50;99.90;;;;;;5091433;28;20176;-71
2023/07/28 03:50:20;;;;;;;0.00;0.00;;;17.50;99.90;;;;;;5091319;28;20195;-70
2023/07/28 03:52:45;;;;;;;0.00;0.00;;;17.50;99.90;;;;;;5070732;28;20177;-70
2023/07/28 03:55:11;;;;;;;0.00;0.00;;;17.50;99.90;;;;;;5083148;28;20219;-71
2023/07/28 03:57:36;;;;;;;0.00;0.00;;;17.50;99.90;;;;;;5091002;28;20210;-70
2023/07/28 04:00:03;;;;;;;0.00;0.00;;;17.50;99.90;;;;;;5092030;28;20180;-71
2023/07/28 04:02:29;;;;;;;0.00;0.00;;;17.50;99.90;;;;;;5090572;28;20187;-68
2023/07/28 04:04:55;;;;;;;0.00;0.00;;;17.50;99.90;;;;;;5090620;28;20171;-69
2023/07/28 04:07:20;;;;;;;0.00;0.00;;;17.50;99.90;;;;;;5091597;28;20187;-68
2023/07/28 04:09:48;;;;;;;0.00;0.00;;;17.50;99.90;;;;;;5089970;28;20172;-70
2023/07/28 04:12:14;;;;;;;0.00;0.00;;;17.50;99.90;;;;;;5092350;28;20183;-71
2023/07/28 04:14:40;;;;;;;0.00;0.00;;;17.50;99.90;;;;;;5092135;28;20212;-69
2023/07/28 04:17:06;;;;;;;0.00;0.00;;;17.50;99.90;;;;;;5091973;28;20176;-68
2023/07/28 04:19:33;;;;;;;0.00;0.00;;;17.50;99.90;;;;;;5092390;28;20180;-74
2023/07/28 04:22:00;;;;;;;0.00;0.00;;;17.50;99.90;;;;;;5092044;28;20184;-71
2023/07/28 04:24:26;;;;;;;0.00;0.00;;;17.50;99.90;;;;;;5091679;28;20253;-70
2023/07/28 04:26:52;;;;;;;0.00;0.00;;;17.50;99.90;;;;;;5090663;28;20179;-70
2023/07/28 04:29:17;;;;;;;0.00;0.00;;;17.60;99.90;;;;;;5091088;28;20730;-70
2023/07/28 04:31:45;;;;;;;0.00;0.00;;;17.60;99.90;;;;;;5092656;28;20245;-70
2023/07/28 04:34:11;;;;;;;0.00;0.00;;;17.60;99.90;;;;;;5092260;28;20210;-69
2023/07/28 04:36:36;;;;;;;0.00;0.00;;;17.60;99.90;;;;;;5091202;28;20212;-70
2023/07/28 04:39:03;;;;;;;0.00;0.00;;;17.60;99.90;;;;;;5091792;28;20172;-70
2023/07/28 04:41:29;;;;;;;0.05;0.05;;;17.60;99.90;;;;;;5092743;28;20188;-70
2023/07/28 04:43:54;;;;;;;0.00;0.00;;;17.60;99.90;;;;;;5092014;28;20638;-70
2023/07/28 04:46:20;;;;;;;0.00;0.00;;;17.60;99.90;;;;;;5091486;28;20513;-70
2023/07/28 04:48:46;;;;;;;0.00;0.00;;;17.60;99.90;;;;;;5091363;28;20590;-70
2023/07/28 04:51:11;;;;;;;0.00;0.00;;;17.60;99.90;;;;;;5091646;28;20183;-70
2023/07/28 04:53:37;;;;;;;0.10;0.10;;;17.60;99.90;;;;;;5091867;28;20179;-70
2023/07/28 04:56:03;;;;;;;0.00;0.00;;;17.70;99.90;;;;;;5091931;28;20576;-70
2023/07/28 04:58:29;;;;;;;0.00;0.00;;;17.60;99.90;;;;;;5090354;28;20184;-70
2023/07/28 05:00:54;;;;;;;0.00;0.00;;;17.60;99.90;;;;;;5091319;28;20179;-70
2023/07/28 05:03:20;;;;;;;0.10;0.10;;;17.70;99.90;;;;;;5091258;28;20172;-70
2023/07/28 05:05:45;;;;;;;0.00;0.00;;;17.70;99.90;;;;;;5091560;28;20511;-71
2023/07/28 05:08:11;;;;;;;0.15;0.15;;;17.70;99.90;;;;;;5091970;28;20531;-70
2023/07/28 05:10:37;;;;;;;0.00;0.00;;;17.70;99.90;;;;;;5092706;28;20248;-70
2023/07/28 05:13:05;;;;;;;0.00;0.00;;;17.70;99.90;;;;;;5093234;28;20174;-71
2023/07/28 05:15:31;;;;;;;0.00;0.00;;;17.70;99.90;;;;;;5091990;28;20219;-70
2023/07/28 05:17:56;;;;;;;0.05;0.05;;;17.70;99.90;;;;;;5091363;28;20171;-70
2023/07/28 05:20:22;;;;;;;0.00;0.00;;;17.80;99.90;;;;;;5091133;28;20694;-70
2023/07/28 05:22:47;;;;;;;0.00;0.00;;;17.80;99.90;;;;;;5091153;28;20643;-70
2023/07/28 05:25:13;;;;;;;0.00;0.00;;;17.80;99.90;;;;;;5091018;28;20215;-70
2023/07/28 05:27:39;;;;;;;0.00;0.00;;;17.70;99.90;;;;;;5089512;28;20647;-69
2023/07/28 05:30:05;;;;;;;0.00;0.00;;;17.80;99.90;;;;;;5090958;28;20180;-70
2023/07/28 05:32:31;;;;;;;0.00;0.00;;;17.80;99.90;;;;;;5090554;28;20271;-70
2023/07/28 05:34:57;;;;;;;0.00;0.00;;;17.80;99.90;;;;;;5090596;28;20636;-70
2023/07/28 05:37:22;;;;;;;0.00;0.00;;;17.80;99.90;;;;;;5090520;28;20536;-70
2023/07/28 05:39:48;;;;;;;0.10;0.10;;;17.70;99.90;;;;;;5090797;28;20212;-70
2023/07/28 05:42:13;;;;;;;0.00;0.00;;;17.70;99.90;;;;;;5090507;28;20223;-70
2023/07/28 05:44:39;;;;;;;0.00;0.00;;;17.70;99.90;;;;;;5090510;28;20180;-70
2023/07/28 05:47:05;;;;;;;0.00;0.00;;;17.70;99.90;;;;;;5090692;28;20173;-70
2023/07/28 05:49:30;;;;;;;0.10;0.10;;;17.70;99.90;;;;;;5090541;28;20172;-70
2023/07/28 05:51:56;;;;;;;0.00;0.00;;;17.70;99.90;;;;;;5090609;28;20172;-69
2023/07/28 05:54:21;;;;;;;0.00;0.00;;;17.80;99.90;;;;;;5090044;28;20231;-69
2023/07/28 05:56:47;;;;;;;0.00;0.00;;;17.80;99.90;;;;;;5090557;28;20184;-69
2023/07/28 05:59:12;;;;;;;0.00;0.00;;;17.90;99.90;;;;;;5089053;28;20187;-70
2023/07/28 06:01:38;;;;;;;0.00;0.00;;;17.90;99.90;;;;;;5093362;28;20188;-69
2023/07/28 06:04:03;;;;;;;0.00;0.00;;;18.00;99.90;;;;;;5093997;28;20179;-70
2023/07/28 06:06:29;;;;;;;0.00;0.00;;;18.00;99.90;;;;;;5093845;28;20281;-70
2023/07/28 06:08:54;;;;;;;0.00;0.00;;;17.90;99.90;;;;;;5094057;28;20173;-69
2023/07/28 06:11:21;;;;;;;0.00;0.00;;;17.90;99.90;;;;;;5093855;28;20216;-69
2023/07/28 06:13:46;;;;;;;0.00;0.00;;;17.90;99.90;;;;;;5092667;28;20172;-69
2023/07/28 06:16:15;;;;;;;0.00;0.00;;;17.90;99.90;;;;;;5092392;28;20298;-70
2023/07/28 06:18:41;;;;;;;0.00;0.00;;;17.90;99.90;;;;;;5092458;28;20176;-69
2023/07/28 06:21:06;;;;;;;0.05;0.05;;;17.90;99.90;;;;;;5093846;28;20245;-69
2023/07/28 06:23:32;;;;;;;0.00;0.00;;;17.90;99.90;;;;;;5093702;28;20263;-69
2023/07/28 06:25:57;;;;;;;0.00;0.00;;;17.90;99.90;;;;;;5093790;28;20639;-69
2023/07/28 06:28:23;;;;;;;0.00;0.00;;;17.90;99.90;;;;;;5093617;28;20301;-69
2023/07/28 06:30:58;;;;;;;0.00;0.00;;;17.90;99.90;;;;;;5094046;28;20172;-68
2023/07/28 06:33:28;;;;;;;0.00;0.00;;;17.90;99.90;;;;;;5093905;28;20608;-68
2023/07/28 06:35:54;;;;;;;0.00;0.00;;;17.80;99.90;;;;;;5093726;28;20212;-69
2023/07/28 06:38:20;;;;;;;0.00;0.00;;;17.80;99.90;;;;;;5093694;28;20179;-69
2023/07/28 06:40:45;;;;;;;0.00;0.00;;;17.80;99.90;;;;;;5093570;28;20180;-68
2023/07/28 06:43:11;;;;;;;0.00;0.00;;;17.90;99.90;;;;;;5093667;28;20172;-69
2023/07/28 06:45:36;;;;;;;0.00;0.00;;;17.90;99.90;;;;;;5093678;28;20185;-69
2023/07/28 06:48:03;;;;;;;0.00;0.00;;;17.90;99.90;;;;;;5093549;28;20175;-69
2023/07/28 06:50:28;;;;;;;0.00;0.00;;;17.90;99.90;;;;;;5092251;28;20285;-69
2023/07/28 06:52:54;;;;;;;0.00;0.00;;;17.90;99.90;;;;;;5092291;28;20185;-69
2023/07/28 06:55:21;;;;;;;0.00;0.00;;;17.80;99.90;;;;;;5093285;28;20292;-69
2023/07/28 06:57:47;;;;;;;0.00;0.00;;;17.80;99.90;;;;;;5092295;28;20318;-69
2023/07/28 07:00:14;;;;;;;0.00;0.00;;;17.90;99.90;;;;;;5093315;28;20207;-69
2023/07/28 07:02:40;;;;;;;0.00;0.00;;;17.90;99.90;;;;;;5092019;28;20176;-68
2023/07/28 07:05:06;;;;;;;0.70;0.40;;;18.00;99.90;;;;;;5093323;28;20178;-69
2023/07/28 07:07:32;;;;;;;0.00;0.00;;;17.90;99.90;;;;;;5093261;28;20164;-69
2023/07/28 07:09:58;;;;;;;0.00;0.00;;;18.00;99.90;;;;;;5091997;28;20709;-69
2023/07/28 07:12:23;;;;;;;0.00;0.00;;;18.00;99.90;;;;;;5091618;28;20184;-69
2023/07/28 07:14:49;;;;;;;0.00;0.00;;;18.10;99.90;;;;;;5091878;28;20249;-70
2023/07/28 07:17:14;;;;;;;0.00;0.00;;;18.20;99.90;;;;;;5093093;28;20172;-70
2023/07/28 07:19:40;;;;;;;0.00;0.00;;;18.40;99.90;;;;;;5091739;28;20179;-69
2023/07/28 07:22:06;;;;;;;0.00;0.00;;;18.60;99.90;;;;;;5092973;28;20178;-70
2023/07/28 07:24:32;;;;;;;0.08;0.08;;;18.70;99.90;;;;;;5091735;28;20180;-70
2023/07/28 07:26:58;;;;;;;0.00;0.00;;;18.70;99.90;;;;;;5091516;28;20173;-68
2023/07/28 07:29:23;;;;;;;0.00;0.00;;;18.80;99.90;;;;;;5092807;28;20191;-69
2023/07/28 07:31:54;;;;;;;0.00;0.00;;;18.80;99.90;;;;;;5092848;28;20696;-69
2023/07/28 07:34:20;;;;;;;0.00;0.00;;;18.80;99.90;;;;;;5092536;28;20580;-69
2023/07/28 07:36:46;;;;;;;0.00;0.00;;;18.80;99.90;;;;;;5092712;28;20183;-69
2023/07/28 07:39:11;;;;;;;0.00;0.00;;;18.80;99.90;;;;;;5092550;28;20172;-69
2023/07/28 07:41:37;;;;;;;0.00;0.00;;;18.80;99.90;;;;;;5087841;28;20659;-70
2023/07/28 07:44:02;;;;;;;0.00;0.00;;;18.80;99.90;;;;;;5072282;28;20585;-70
2023/07/28 07:46:28;;;;;;;0.00;0.00;;;18.80;99.90;;;;;;5091092;28;20661;-69
2023/07/28 07:48:53;;;;;;;0.00;0.00;;;18.80;99.90;;;;;;5092553;28;20172;-69
2023/07/28 07:51:19;;;;;;;0.00;0.00;;;18.80;99.90;;;;;;5092232;28;20180;-69
2023/07/28 07:53:45;;;;;;;0.00;0.00;;;18.80;99.90;;;;;;5092388;28;20191;-68
2023/07/28 07:56:10;;;;;;;0.00;0.00;;;18.80;99.90;;;;;;5092371;28;20569;-69
2023/07/28 07:58:36;;;;;;;0.00;0.00;;;18.90;99.90;;;;;;5092610;28;20194;-69
2023/07/28 08:01:02;;;;;;;0.00;0.00;;;18.90;99.90;;;;;;5092213;28;20198;-69
2023/07/28 08:03:28;;;;;;;0.00;0.00;;;19.00;99.90;;;;;;5091042;28;20576;-69
2023/07/28 08:05:53;;;;;;;0.00;0.00;;;18.90;99.90;;;;;;5092236;28;20164;-69
2023/07/28 08:08:19;;;;;;;1.27;1.00;;;19.00;99.90;;;;;;5090671;28;20263;-69
2023/07/28 08:10:49;;;;;;;0.00;0.00;;;18.90;99.90;;;;;;5092100;28;20164;-69
2023/07/28 08:13:15;;;;;;;0.00;0.00;;;18.90;99.90;;;;;;5092043;28;20172;-69
2023/07/28 08:15:43;;;;;;;0.00;0.00;;;19.00;99.90;;;;;;5091842;28;20253;-69
2023/07/28 08:18:08;;;;;;;0.00;0.00;;;18.90;99.90;;;;;;5092040;28;20273;-69
2023/07/28 08:20:34;;;;;;;0.00;0.00;;;19.00;99.90;;;;;;5091996;28;20180;-69
2023/07/28 08:22:59;;;;;;;0.00;0.00;;;19.00;99.90;;;;;;5091310;28;20181;-70
2023/07/28 08:25:25;;;;;;;0.00;0.00;;;19.00;99.90;;;;;;5091860;28;20208;-70
2023/07/28 08:27:50;;;;;;;0.00;0.00;;;19.10;99.90;;;;;;5091700;28;20678;-70
2023/07/28 08:30:16;;;;;;;0.00;0.00;;;19.10;99.90;;;;;;5091833;28;20674;-69
2023/07/28 08:32:42;;;;;;;0.00;0.00;;;19.20;99.90;;;;;;5091779;28;20224;-70
2023/07/28 08:35:08;;;;;;;0.00;0.00;;;19.30;99.90;;;;;;5091592;28;21005;-69
2023/07/28 08:37:34;;;;;;;0.00;0.00;;;19.30;99.90;;;;;;5091852;28;20267;-69
2023/07/28 08:39:59;;;;;;;0.00;0.00;;;19.40;99.90;;;;;;5091574;28;20257;-69
2023/07/28 08:42:25;;;;;;;0.00;0.00;;;19.40;99.90;;;;;;5091534;28;20183;-70
2023/07/28 08:44:52;;;;;;;0.00;0.00;;;19.40;99.90;;;;;;5091635;28;20229;-70
2023/07/28 08:47:18;;;;;;;0.00;0.00;;;19.60;99.90;;;;;;5091543;28;20172;-69
2023/07/28 08:49:44;;;;;;;0.00;0.00;;;19.70;99.90;;;;;;5091660;28;20168;-69
2023/07/28 08:52:10;;;;;;;0.00;0.00;;;19.90;99.90;;;;;;5091656;28;20591;-70
2023/07/28 08:54:35;;;;;;;0.00;0.00;;;20.10;99.90;;;;;;5091503;28;20626;-69
2023/07/28 08:57:01;;;;;;;0.00;0.00;;;20.20;99.90;;;;;;5091467;28;20184;-70
2023/07/28 08:59:28;;;;;;;0.00;0.00;;;20.30;99.90;;;;;;5091420;28;20579;-70
2023/07/28 09:01:56;;;;;;;0.00;0.00;;;20.40;99.90;;;;;;5091787;28;20168;-70
2023/07/28 09:04:22;;;;;;;0.00;0.00;;;20.40;99.90;;;;;;5091336;28;20263;-70
2023/07/28 09:06:49;;;;;;;0.00;0.00;;;20.50;99.90;;;;;;5091440;28;20631;-70
2023/07/28 09:09:15;;;;;;;0.00;0.00;;;20.80;99.90;;;;;;5091406;28;20194;-70
2023/07/28 09:11:49;;;;;;;0.00;0.00;;;21.20;99.90;;;;;;5091377;28;20168;-70
2023/07/28 09:14:17;;;;;;;0.00;0.00;;;21.40;99.90;;;;;;5091339;28;20655;-70
2023/07/28 09:16:48;;;;;;;0.00;0.00;;;21.60;99.90;;;;;;5091176;28;20176;-70
2023/07/28 09:19:14;;;;;;;0.00;0.00;;;21.60;99.90;;;;;;5091215;28;20169;-70
2023/07/28 09:21:42;;;;;;;0.00;0.00;;;21.70;99.90;;;;;;5091100;28;20176;-70
2023/07/28 09:24:13;;;;;;;0.05;0.05;;;21.70;99.90;;;;;;5091089;28;20168;-70
2023/07/28 09:26:46;;;;;;;0.00;0.00;;;21.90;99.90;;;;;;5091159;28;20176;-70
2023/07/28 09:29:17;;;;;;;0.00;0.00;;;22.30;99.90;;;;;;5090629;28;20232;-70
2023/07/28 09:31:43;;;;;;;0.00;0.00;;;22.60;99.90;;;;;;5090927;28;20164;-70
2023/07/28 09:34:10;;;;;;;0.00;0.00;;;22.80;99.90;;;;;;5091632;28;20184;-70
2023/07/28 09:36:38;;;;;;;0.00;0.00;;;22.80;99.90;;;;;;5095024;28;20511;-70
2023/07/28 09:39:04;;;;;;;0.00;0.00;;;22.60;99.90;;;;;;5094806;28;20172;-70
2023/07/28 09:41:30;;;;;;;0.00;0.00;;;22.40;99.90;;;;;;5090013;28;20188;-70
2023/07/28 09:43:57;;;;;;;0.00;0.00;;;22.30;99.90;;;;;;5074548;28;20173;-70
2023/07/28 09:46:24;;;;;;;0.00;0.00;;;22.30;99.90;;;;;;5090723;28;20238;-70
2023/07/28 09:48:55;;;;;;;0.00;0.00;;;22.70;99.90;;;;;;5094784;28;20206;-70
2023/07/28 09:51:22;;;;;;;0.00;0.00;;;23.30;99.90;;;;;;5094621;28;20183;-70
2023/07/28 09:53:58;;;;;;;0.00;0.00;;;23.60;99.90;;;;;;5094773;28;20199;-70
2023/07/28 09:56:29;;;;;;;0.00;0.00;;;23.70;99.90;;;;;;5094530;28;20219;-70
2023/07/28 09:58:57;;;;;;;0.00;0.00;;;23.60;99.90;;;;;;5093505;28;20160;-70
2023/07/28 10:01:23;;;;;;;0.00;0.00;;;23.80;99.90;;;;;;5093006;28;21075;-70
2023/07/28 10:03:50;;;;;;;0.00;0.00;;;23.90;99.90;;;;;;5094545;28;20197;-70
2023/07/28 10:06:17;;;;;;;0.00;0.00;;;24.00;99.90;;;;;;5094284;28;20649;-70
2023/07/28 10:08:43;;;;;;;0.00;0.00;;;24.00;99.90;;;;;;5094274;28;20643;-70
2023/07/28 10:11:10;;;;;;;0.00;0.00;;;23.70;99.90;;;;;;5094377;28;20258;-70
2023/07/28 10:13:44;;;;;;;0.00;0.00;;;23.40;99.90;;;;;;5094343;28;20233;-70
2023/07/28 10:16:10;;;;;;;0.00;0.00;;;23.20;99.90;;;;;;5094234;28;20219;-70
2023/07/28 10:18:36;;;;;;;0.00;0.00;;;23.00;99.90;;;;;;5094262;28;20169;-70
2023/07/28 10:21:15;;;;;;;0.00;0.00;;;22.70;99.90;;;;;;5094149;28;20207;-70
2023/07/28 10:23:41;;;;;;;0.00;0.00;;;22.70;99.90;;;;;;5093090;28;20180;-70
2023/07/28 10:26:06;;;;;;;0.00;0.00;;;22.60;99.90;;;;;;5092918;28;20172;-70
2023/07/28 10:28:38;;;;;;;0.00;0.00;;;22.50;99.90;;;;;;5093800;28;20717;-70
2023/07/28 10:31:06;;;;;;;0.00;0.00;;;22.70;99.90;;;;;;5093970;28;20173;-71
2023/07/28 10:33:44;;;;;;;0.00;0.00;;;22.90;99.90;;;;;;5092646;28;20178;-71
2023/07/28 10:36:14;;;;;;;0.00;0.00;;;23.00;99.90;;;;;;5093787;28;20212;-70
2023/07/28 10:38:40;;;;;;;0.00;0.00;;;22.90;99.90;;;;;;5093780;28;20168;-70
2023/07/28 10:41:17;;;;;;;0.00;0.00;;;22.80;99.90;;;;;;5093589;28;20214;-70
2023/07/28 10:43:44;;;;;;;0.00;0.00;;;22.40;99.90;;;;;;5093753;28;20172;-70
2023/07/28 10:46:11;;;;;;;0.00;0.00;;;22.10;99.90;;;;;;5092861;28;20184;-70
2023/07/28 10:48:42;;;;;;;0.00;0.00;;;21.80;99.90;;;;;;5093756;28;20176;-70
2023/07/28 10:51:07;;;;;;;0.00;0.00;;;21.70;99.90;;;;;;5093620;28;20180;-70
2023/07/28 10:53:33;;;;;;;0.00;0.00;;;21.50;99.90;;;;;;5093607;28;20698;-71
2023/07/28 10:56:02;;;;;;;0.00;0.00;;;21.40;99.90;;;;;;5093456;28;20564;-70
2023/07/28 10:58:27;;;;;;;0.20;0.00;;;21.30;99.90;;;;;;5093388;28;20183;-71
2023/07/28 11:00:53;;;;;;;0.00;0.00;;;21.30;99.90;;;;;;5093538;28;20184;-71
2023/07/28 11:03:20;;;;;;;0.00;0.00;;;21.20;99.90;;;;;;5093187;28;20473;-71
2023/07/28 11:05:47;;;;;;;0.00;0.00;;;21.20;99.90;;;;;;5092266;28;20161;-71
2023/07/28 11:08:13;;;;;;;0.00;0.00;;;21.30;99.90;;;;;;5093180;28;20654;-70
2023/07/28 11:10:39;;;;;;;0.00;0.00;;;21.40;99.90;;;;;;5092899;28;20177;-70
2023/07/28 11:13:06;;;;;;;0.00;0.00;;;21.50;99.90;;;;;;5093065;28;20703;-70
2023/07/28 11:15:32;;;;;;;0.00;0.00;;;21.50;99.90;;;;;;5092870;28;20220;-71
2023/07/28 11:17:57;;;;;;;0.00;0.00;;;21.60;99.90;;;;;;5093068;28;20658;-70
2023/07/28 11:20:25;;;;;;;0.00;0.00;;;21.60;99.90;;;;;;5092830;28;20546;-71
2023/07/28 11:22:54;;;;;;;0.00;0.00;;;21.70;99.90;;;;;;5094808;28;20172;-70
2023/07/28 11:25:21;;;;;;;0.10;0.10;;;21.80;99.90;;;;;;5092181;28;20177;-70
2023/07/28 11:27:47;;;;;;;0.00;0.00;;;21.70;99.90;;;;;;5093174;28;20220;-70
2023/07/28 11:30:15;;;;;;;0.00;0.00;;;21.60;99.90;;;;;;5093263;28;20176;-70
2023/07/28 11:32:43;;;;;;;0.00;0.00;;;21.60;99.90;;;;;;5093024;28;20172;-70
2023/07/28 11:35:11;;;;;;;0.00;0.00;;;21.80;99.90;;;;;;5092732;28;20208;-70
2023/07/28 11:37:38;;;;;;;0.00;0.00;;;21.90;99.90;;;;;;5092728;28;20211;-71
2023/07/28 11:40:08;;;;;;;0.00;0.00;;;22.10;99.90;;;;;;5092670;28;20176;-70
2023/07/28 11:42:35;;;;;;;0.00;0.00;;;22.40;99.90;;;;;;5073556;28;20229;-71
2023/07/28 11:45:03;;;;;;;0.00;0.00;;;22.80;99.90;;;;;;5077279;28;20173;-71
2023/07/28 11:47:28;;;;;;;0.00;0.00;;;23.10;99.90;;;;;;5091222;28;20187;-70
2023/07/28 11:49:54;;;;;;;0.00;0.00;;;23.30;99.90;;;;;;5092737;28;20164;-71
2023/07/28 11:52:21;;;;;;;0.00;0.00;;;23.40;99.90;;;;;;5092414;28;20172;-70
2023/07/28 11:54:47;;;;;;;0.10;0.10;;;23.50;99.90;;;;;;5092896;28;20208;-71
2023/07/28 11:57:13;;;;;;;0.00;0.00;;;23.50;99.90;;;;;;5091911;28;20204;-70
2023/07/28 11:59:38;;;;;;;0.00;0.00;;;23.40;99.90;;;;;;5090758;28;20199;-71
2023/07/28 12:02:05;;;;;;;0.15;0.10;;;23.20;99.90;;;;;;5092234;28;20172;-71
2023/07/28 12:04:41;;;;;;;0.00;0.00;;;22.90;99.90;;;;;;5092487;28;20184;-71
2023/07/28 12:07:13;;;;;;;0.00;0.00;;;22.70;99.90;;;;;;5092348;28;20195;-70
2023/07/28 12:09:59;;;;;;;0.00;0.00;;;22.50;99.90;;;;;;5092156;28;20184;-70
2023/07/28 12:12:28;;;;;;;0.00;0.00;;;22.40;99.90;;;;;;5092116;28;20895;-70
2023/07/28 12:15:04;;;;;;;0.00;0.00;;;22.30;99.90;;;;;;5092120;28;20212;-70
2023/07/28 12:17:31;;;;;;;0.00;0.00;;;22.30;99.90;;;;;;5092079;28;20180;-70
2023/07/28 12:20:10;;;;;;;0.00;0.00;;;22.30;99.90;;;;;;5092130;28;20263;-70
2023/07/28 12:22:37;;;;;;;0.00;0.00;;;22.00;99.90;;;;;;5091962;28;20516;-70
2023/07/28 12:25:04;;;;;;;0.00;0.00;;;21.90;99.90;;;;;;5091955;28;20164;-69
2023/07/28 12:27:30;;;;;;;0.00;0.00;;;21.90;99.90;;;;;;5091557;28;20223;-70
2023/07/28 12:29:55;;;;;;;0.08;0.00;;;21.80;99.90;;;;;;5091773;28;20639;-69
2023/07/28 12:32:21;;;;;;;0.08;0.08;;;21.70;99.90;;;;;;5091672;28;20168;-70
2023/07/28 12:34:48;;;;;;;0.00;0.00;;;21.50;99.90;;;;;;5092194;28;20685;-70
2023/07/28 12:37:14;;;;;;;0.00;0.00;;;21.40;99.90;;;;;;5092096;28;20204;-69
2023/07/28 12:39:39;;;;;;;0.00;0.00;;;21.30;99.90;;;;;;5091932;28;20581;-70
2023/07/28 12:42:09;;;;;;;0.00;0.00;;;21.20;99.90;;;;;;5076178;28;20176;-69
2023/07/28 12:44:36;;;;;;;0.00;0.00;;;21.10;99.90;;;;;;5073058;28;20181;-70